sensor_id;sensor_type;location;lat;lon;timestamp;P1;durP1;ratioP1;P2;durP2;ratioP2
4704;SDS011;2366;51.332;6.610;2023-08-20T00:01:15;6.43;;;4.83;;
4704;SDS011;2366;51.332;6.610;2023-08-20T00:03:46;11.77;;;5.53;;
4704;SDS011;2366;51.332;6.610;2023-08-20T00:06:13;6.57;;;5.37;;
4704;SDS011;2366;51.332;6.610;2023-08-20T00:08:39;7.90;;;5.43;;
4704;SDS011;2366;51.332;6.610;2023-08-20T00:11:04;7.13;;;5.40;;
4704;SDS011;2366;51.332;6.610;2023-08-20T00:13:30;20.77;;;6.73;;
4704;SDS011;2366;51.332;6.610;2023-08-20T00:15:58;7.53;;;5.40;;
4704;SDS011;2366;51.332;6.610;2023-08-20T00:18:24;6.20;;;5.40;;
4704;SDS011;2366;51.332;6.610;2023-08-20T00:20:49;8.30;;;5.47;;
4704;SDS011;2366;51.332;6.610;2023-08-20T00:23:15;6.90;;;6.30;;
4704;SDS011;2366;51.332;6.610;2023-08-20T00:25:41;13.33;;;6.63;;
4704;SDS011;2366;51.332;6.610;2023-08-20T00:28:09;9.90;;;6.37;;
4704;SDS011;2366;51.332;6.610;2023-08-20T00:30:34;9.73;;;6.10;;
4704;SDS011;2366;51.332;6.610;2023-08-20T00:32:59;6.03;;;5.47;;
4704;SDS011;2366;51.332;6.610;2023-08-20T00:35:28;7.17;;;5.80;;
4704;SDS011;2366;51.332;6.610;2023-08-20T00:37:53;9.50;;;5.60;;
4704;SDS011;2366;51.332;6.610;2023-08-20T00:40:19;7.03;;;5.73;;
4704;SDS011;2366;51.332;6.610;2023-08-20T00:42:44;8.60;;;6.10;;
4704;SDS011;2366;51.332;6.610;2023-08-20T00:45:09;10.07;;;5.10;;
4704;SDS011;2366;51.332;6.610;2023-08-20T00:47:35;7.17;;;5.30;;
4704;SDS011;2366;51.332;6.610;2023-08-20T00:50:01;8.27;;;5.17;;
4704;SDS011;2366;51.332;6.610;2023-08-20T00:52:30;6.75;;;6.07;;
4704;SDS011;2366;51.332;6.610;2023-08-20T00:54:56;6.93;;;6.23;;
4704;SDS011;2366;51.332;6.610;2023-08-20T00:57:22;7.40;;;5.87;;
4704;SDS011;2366;51.332;6.610;2023-08-20T00:59:48;15.70;;;7.70;;
4704;SDS011;2366;51.332;6.610;2023-08-20T01:02:15;9.90;;;6.27;;
4704;SDS011;2366;51.332;6.610;2023-08-20T01:04:42;10.93;;;5.83;;
4704;SDS011;2366;51.332;6.610;2023-08-20T01:10:07;10.10;;;5.90;;
4704;SDS011;2366;51.332;6.610;2023-08-20T01:12:39;9.82;;;5.85;;
4704;SDS011;2366;51.332;6.610;2023-08-20T01:15:04;11.30;;;8.00;;
4704;SDS011;2366;51.332;6.610;2023-08-20T01:17:30;7.80;;;6.47;;
4704;SDS011;2366;51.332;6.610;2023-08-20T01:19:56;9.93;;;6.83;;
4704;SDS011;2366;51.332;6.610;2023-08-20T01:30:22;10.27;;;6.83;;
4704;SDS011;2366;51.332;6.610;2023-08-20T01:32:50;11.40;;;6.93;;
4704;SDS011;2366;51.332;6.610;2023-08-20T01:35:17;9.75;;;7.57;;
4704;SDS011;2366;51.332;6.610;2023-08-20T01:37:43;14.80;;;8.23;;
4704;SDS011;2366;51.332;6.610;2023-08-20T01:40:09;10.17;;;6.23;;
4704;SDS011;2366;51.332;6.610;2023-08-20T01:42:38;11.77;;;7.45;;
4704;SDS011;2366;51.332;6.610;2023-08-20T01:45:05;10.27;;;7.07;;
4704;SDS011;2366;51.332;6.610;2023-08-20T01:47:31;16.05;;;7.07;;
4704;SDS011;2366;51.332;6.610;2023-08-20T01:49:57;7.22;;;6.50;;
4704;SDS011;2366;51.332;6.610;2023-08-20T01:52:23;12.07;;;6.87;;
4704;SDS011;2366;51.332;6.610;2023-08-20T01:54:49;8.50;;;7.23;;
4704;SDS011;2366;51.332;6.610;2023-08-20T01:57:15;10.00;;;8.00;;
4704;SDS011;2366;51.332;6.610;2023-08-20T01:59:40;11.50;;;7.47;;
4704;SDS011;2366;51.332;6.610;2023-08-20T02:02:05;9.93;;;6.73;;
4704;SDS011;2366;51.332;6.610;2023-08-20T02:04:31;10.70;;;7.20;;
4704;SDS011;2366;51.332;6.610;2023-08-20T02:06:57;6.50;;;5.70;;
4704;SDS011;2366;51.332;6.610;2023-08-20T02:09:23;7.97;;;5.30;;
4704;SDS011;2366;51.332;6.610;2023-08-20T02:11:49;8.23;;;6.13;;
4704;SDS011;2366;51.332;6.610;2023-08-20T02:14:15;9.93;;;6.30;;
4704;SDS011;2366;51.332;6.610;2023-08-20T02:16:40;7.00;;;6.00;;
4704;SDS011;2366;51.332;6.610;2023-08-20T02:19:05;9.37;;;7.00;;
4704;SDS011;2366;51.332;6.610;2023-08-20T02:21:31;7.80;;;7.10;;
4704;SDS011;2366;51.332;6.610;2023-08-20T02:23:57;11.27;;;7.33;;
4704;SDS011;2366;51.332;6.610;2023-08-20T02:26:23;8.40;;;7.50;;
4704;SDS011;2366;51.332;6.610;2023-08-20T02:28:48;17.13;;;8.10;;
4704;SDS011;2366;51.332;6.610;2023-08-20T02:31:13;9.10;;;6.60;;
4704;SDS011;2366;51.332;6.610;2023-08-20T02:33:39;13.43;;;7.33;;
4704;SDS011;2366;51.332;6.610;2023-08-20T02:36:04;7.30;;;6.33;;
4704;SDS011;2366;51.332;6.610;2023-08-20T02:38:30;9.20;;;7.80;;
4704;SDS011;2366;51.332;6.610;2023-08-20T02:40:55;15.30;;;8.50;;
4704;SDS011;2366;51.332;6.610;2023-08-20T02:43:21;13.53;;;8.10;;
4704;SDS011;2366;51.332;6.610;2023-08-20T02:45:46;10.00;;;8.10;;
4704;SDS011;2366;51.332;6.610;2023-08-20T02:48:12;10.03;;;7.63;;
4704;SDS011;2366;51.332;6.610;2023-08-20T02:50:38;11.33;;;8.77;;
4704;SDS011;2366;51.332;6.610;2023-08-20T02:53:04;15.13;;;7.60;;
4704;SDS011;2366;51.332;6.610;2023-08-20T02:55:30;15.90;;;9.00;;
4704;SDS011;2366;51.332;6.610;2023-08-20T02:57:56;11.43;;;6.97;;
4704;SDS011;2366;51.332;6.610;2023-08-20T03:00:22;8.77;;;7.83;;
4704;SDS011;2366;51.332;6.610;2023-08-20T03:02:47;13.50;;;7.87;;
4704;SDS011;2366;51.332;6.610;2023-08-20T03:05:13;13.10;;;8.83;;
4704;SDS011;2366;51.332;6.610;2023-08-20T03:07:39;11.00;;;8.48;;
4704;SDS011;2366;51.332;6.610;2023-08-20T03:10:04;11.63;;;8.37;;
4704;SDS011;2366;51.332;6.610;2023-08-20T03:12:31;18.95;;;10.63;;
4704;SDS011;2366;51.332;6.610;2023-08-20T03:14:58;12.43;;;7.73;;
4704;SDS011;2366;51.332;6.610;2023-08-20T03:17:24;20.73;;;10.40;;
4704;SDS011;2366;51.332;6.610;2023-08-20T03:19:56;15.37;;;9.20;;
4704;SDS011;2366;51.332;6.610;2023-08-20T03:22:26;20.30;;;12.00;;
4704;SDS011;2366;51.332;6.610;2023-08-20T03:24:52;15.38;;;10.10;;
4704;SDS011;2366;51.332;6.610;2023-08-20T03:27:18;13.80;;;9.73;;
4704;SDS011;2366;51.332;6.610;2023-08-20T03:29:44;16.53;;;10.40;;
4704;SDS011;2366;51.332;6.610;2023-08-20T03:32:10;15.90;;;10.17;;
4704;SDS011;2366;51.332;6.610;2023-08-20T03:34:35;23.40;;;10.53;;
4704;SDS011;2366;51.332;6.610;2023-08-20T03:37:01;16.60;;;9.53;;
4704;SDS011;2366;51.332;6.610;2023-08-20T03:39:27;17.00;;;8.60;;
4704;SDS011;2366;51.332;6.610;2023-08-20T03:41:53;13.30;;;9.80;;
4704;SDS011;2366;51.332;6.610;2023-08-20T03:44:18;14.97;;;9.50;;
4704;SDS011;2366;51.332;6.610;2023-08-20T03:46:44;18.43;;;9.60;;
4704;SDS011;2366;51.332;6.610;2023-08-20T03:49:09;15.53;;;9.30;;
4704;SDS011;2366;51.332;6.610;2023-08-20T03:51:35;10.30;;;8.37;;
4704;SDS011;2366;51.332;6.610;2023-08-20T03:54:00;13.27;;;8.83;;
4704;SDS011;2366;51.332;6.610;2023-08-20T03:56:26;12.93;;;9.27;;
4704;SDS011;2366;51.332;6.610;2023-08-20T03:58:51;14.03;;;9.20;;
4704;SDS011;2366;51.332;6.610;2023-08-20T04:01:17;19.80;;;9.50;;
4704;SDS011;2366;51.332;6.610;2023-08-20T04:03:43;15.77;;;10.33;;
4704;SDS011;2366;51.332;6.610;2023-08-20T04:06:08;15.83;;;10.17;;
4704;SDS011;2366;51.332;6.610;2023-08-20T04:08:34;21.53;;;10.87;;
4704;SDS011;2366;51.332;6.610;2023-08-20T04:10:59;17.43;;;9.50;;
4704;SDS011;2366;51.332;6.610;2023-08-20T04:13:24;13.93;;;10.30;;
4704;SDS011;2366;51.332;6.610;2023-08-20T04:15:50;16.33;;;9.90;;
4704;SDS011;2366;51.332;6.610;2023-08-20T04:18:16;23.77;;;10.45;;
4704;SDS011;2366;51.332;6.610;2023-08-20T04:20:42;13.33;;;9.70;;
4704;SDS011;2366;51.332;6.610;2023-08-20T04:23:07;16.33;;;10.77;;
4704;SDS011;2366;51.332;6.610;2023-08-20T04:25:32;15.17;;;11.20;;
4704;SDS011;2366;51.332;6.610;2023-08-20T04:27:59;16.55;;;11.32;;
4704;SDS011;2366;51.332;6.610;2023-08-20T04:30:25;14.33;;;9.73;;
4704;SDS011;2366;51.332;6.610;2023-08-20T04:32:50;19.97;;;11.93;;
4704;SDS011;2366;51.332;6.610;2023-08-20T04:35:16;13.13;;;10.57;;
4704;SDS011;2366;51.332;6.610;2023-08-20T04:37:41;15.80;;;11.10;;
4704;SDS011;2366;51.332;6.610;2023-08-20T04:40:07;15.53;;;10.80;;
4704;SDS011;2366;51.332;6.610;2023-08-20T04:42:33;21.52;;;11.85;;
4704;SDS011;2366;51.332;6.610;2023-08-20T04:44:59;18.02;;;11.00;;
4704;SDS011;2366;51.332;6.610;2023-08-20T04:47:25;22.03;;;11.77;;
4704;SDS011;2366;51.332;6.610;2023-08-20T04:49:50;17.23;;;11.37;;
4704;SDS011;2366;51.332;6.610;2023-08-20T04:52:16;15.93;;;10.77;;
4704;SDS011;2366;51.332;6.610;2023-08-20T04:54:41;15.57;;;11.57;;
4704;SDS011;2366;51.332;6.610;2023-08-20T04:57:06;18.97;;;11.83;;
4704;SDS011;2366;51.332;6.610;2023-08-20T04:59:32;14.23;;;10.67;;
4704;SDS011;2366;51.332;6.610;2023-08-20T05:01:58;16.87;;;11.83;;
4704;SDS011;2366;51.332;6.610;2023-08-20T05:04:23;16.63;;;12.43;;
4704;SDS011;2366;51.332;6.610;2023-08-20T05:06:48;16.87;;;10.40;;
4704;SDS011;2366;51.332;6.610;2023-08-20T05:09:14;17.40;;;11.57;;
4704;SDS011;2366;51.332;6.610;2023-08-20T05:11:41;14.80;;;10.57;;
4704;SDS011;2366;51.332;6.610;2023-08-20T05:14:06;24.37;;;12.53;;
4704;SDS011;2366;51.332;6.610;2023-08-20T05:16:31;17.13;;;10.00;;
4704;SDS011;2366;51.332;6.610;2023-08-20T05:18:57;14.07;;;9.80;;
4704;SDS011;2366;51.332;6.610;2023-08-20T05:21:22;13.00;;;9.90;;
4704;SDS011;2366;51.332;6.610;2023-08-20T05:23:47;11.83;;;9.50;;
4704;SDS011;2366;51.332;6.610;2023-08-20T05:26:13;10.03;;;7.67;;
4704;SDS011;2366;51.332;6.610;2023-08-20T05:28:38;14.20;;;9.30;;
4704;SDS011;2366;51.332;6.610;2023-08-20T05:31:03;16.00;;;9.10;;
4704;SDS011;2366;51.332;6.610;2023-08-20T05:33:29;12.10;;;9.33;;
4704;SDS011;2366;51.332;6.610;2023-08-20T05:35:55;13.73;;;9.13;;
4704;SDS011;2366;51.332;6.610;2023-08-20T05:38:21;19.73;;;9.00;;
4704;SDS011;2366;51.332;6.610;2023-08-20T05:40:46;10.80;;;8.53;;
4704;SDS011;2366;51.332;6.610;2023-08-20T05:43:12;11.73;;;7.90;;
4704;SDS011;2366;51.332;6.610;2023-08-20T05:45:37;9.80;;;7.87;;
4704;SDS011;2366;51.332;6.610;2023-08-20T05:48:02;12.03;;;7.80;;
4704;SDS011;2366;51.332;6.610;2023-08-20T05:50:28;7.53;;;6.80;;
4704;SDS011;2366;51.332;6.610;2023-08-20T05:52:53;12.93;;;8.13;;
4704;SDS011;2366;51.332;6.610;2023-08-20T05:55:19;13.30;;;7.47;;
4704;SDS011;2366;51.332;6.610;2023-08-20T05:57:44;8.83;;;7.30;;
4704;SDS011;2366;51.332;6.610;2023-08-20T06:00:10;18.50;;;7.97;;
4704;SDS011;2366;51.332;6.610;2023-08-20T06:02:36;7.83;;;6.67;;
4704;SDS011;2366;51.332;6.610;2023-08-20T06:05:03;11.40;;;7.27;;
4704;SDS011;2366;51.332;6.610;2023-08-20T06:07:31;8.27;;;6.60;;
4704;SDS011;2366;51.332;6.610;2023-08-20T06:09:57;14.33;;;7.77;;
4704;SDS011;2366;51.332;6.610;2023-08-20T06:12:22;8.73;;;6.93;;
4704;SDS011;2366;51.332;6.610;2023-08-20T06:14:48;6.30;;;5.70;;
4704;SDS011;2366;51.332;6.610;2023-08-20T06:17:13;11.50;;;7.53;;
4704;SDS011;2366;51.332;6.610;2023-08-20T06:19:39;11.00;;;6.73;;
4704;SDS011;2366;51.332;6.610;2023-08-20T06:22:04;14.07;;;6.60;;
4704;SDS011;2366;51.332;6.610;2023-08-20T06:24:30;19.57;;;7.70;;
4704;SDS011;2366;51.332;6.610;2023-08-20T06:26:55;11.03;;;6.70;;
4704;SDS011;2366;51.332;6.610;2023-08-20T06:29:21;9.73;;;6.50;;
4704;SDS011;2366;51.332;6.610;2023-08-20T06:31:49;9.03;;;6.73;;
4704;SDS011;2366;51.332;6.610;2023-08-20T06:34:15;9.20;;;6.60;;
4704;SDS011;2366;51.332;6.610;2023-08-20T06:36:41;8.07;;;6.00;;
4704;SDS011;2366;51.332;6.610;2023-08-20T06:39:06;9.30;;;6.67;;
4704;SDS011;2366;51.332;6.610;2023-08-20T06:41:31;11.37;;;7.20;;
4704;SDS011;2366;51.332;6.610;2023-08-20T06:43:57;8.63;;;6.47;;
4704;SDS011;2366;51.332;6.610;2023-08-20T06:46:23;9.03;;;6.63;;
4704;SDS011;2366;51.332;6.610;2023-08-20T06:48:48;10.13;;;7.50;;
4704;SDS011;2366;51.332;6.610;2023-08-20T06:51:14;15.57;;;7.00;;
4704;SDS011;2366;51.332;6.610;2023-08-20T06:53:42;9.23;;;7.50;;
4704;SDS011;2366;51.332;6.610;2023-08-20T06:56:08;12.30;;;8.50;;
4704;SDS011;2366;51.332;6.610;2023-08-20T06:58:34;11.07;;;6.30;;
4704;SDS011;2366;51.332;6.610;2023-08-20T07:01:00;11.20;;;8.23;;
4704;SDS011;2366;51.332;6.610;2023-08-20T07:03:36;12.53;;;8.30;;
4704;SDS011;2366;51.332;6.610;2023-08-20T07:06:03;12.90;;;7.53;;
4704;SDS011;2366;51.332;6.610;2023-08-20T07:08:29;13.70;;;8.50;;
4704;SDS011;2366;51.332;6.610;2023-08-20T07:10:55;12.03;;;8.93;;
4704;SDS011;2366;51.332;6.610;2023-08-20T07:13:20;10.67;;;9.57;;
4704;SDS011;2366;51.332;6.610;2023-08-20T07:15:45;14.30;;;9.80;;
4704;SDS011;2366;51.332;6.610;2023-08-20T07:18:11;12.40;;;8.23;;
4704;SDS011;2366;51.332;6.610;2023-08-20T07:20:38;16.17;;;9.67;;
4704;SDS011;2366;51.332;6.610;2023-08-20T07:23:04;13.50;;;9.40;;
4704;SDS011;2366;51.332;6.610;2023-08-20T07:25:29;12.20;;;7.83;;
4704;SDS011;2366;51.332;6.610;2023-08-20T07:27:55;14.80;;;8.80;;
4704;SDS011;2366;51.332;6.610;2023-08-20T07:30:24;16.47;;;10.57;;
4704;SDS011;2366;51.332;6.610;2023-08-20T07:32:50;12.80;;;9.27;;
4704;SDS011;2366;51.332;6.610;2023-08-20T07:35:15;16.07;;;8.50;;
4704;SDS011;2366;51.332;6.610;2023-08-20T07:37:40;14.33;;;8.30;;
4704;SDS011;2366;51.332;6.610;2023-08-20T07:40:06;14.13;;;9.80;;
4704;SDS011;2366;51.332;6.610;2023-08-20T07:42:32;10.77;;;6.60;;
4704;SDS011;2366;51.332;6.610;2023-08-20T07:44:57;11.83;;;7.30;;
4704;SDS011;2366;51.332;6.610;2023-08-20T07:47:23;10.70;;;7.27;;
4704;SDS011;2366;51.332;6.610;2023-08-20T07:49:48;12.37;;;7.20;;
4704;SDS011;2366;51.332;6.610;2023-08-20T07:52:13;12.03;;;6.87;;
4704;SDS011;2366;51.332;6.610;2023-08-20T07:54:39;11.70;;;7.10;;
4704;SDS011;2366;51.332;6.610;2023-08-20T07:57:04;12.83;;;7.37;;
4704;SDS011;2366;51.332;6.610;2023-08-20T07:59:30;11.10;;;7.97;;
4704;SDS011;2366;51.332;6.610;2023-08-20T08:01:55;8.17;;;7.37;;
4704;SDS011;2366;51.332;6.610;2023-08-20T08:04:20;9.47;;;7.93;;
4704;SDS011;2366;51.332;6.610;2023-08-20T08:06:46;12.73;;;7.20;;
4704;SDS011;2366;51.332;6.610;2023-08-20T08:09:18;10.70;;;9.00;;
4704;SDS011;2366;51.332;6.610;2023-08-20T08:11:51;12.83;;;8.00;;
4704;SDS011;2366;51.332;6.610;2023-08-20T08:14:17;12.07;;;10.20;;
4704;SDS011;2366;51.332;6.610;2023-08-20T08:16:42;9.27;;;7.77;;
4704;SDS011;2366;51.332;6.610;2023-08-20T08:19:09;9.50;;;8.50;;
4704;SDS011;2366;51.332;6.610;2023-08-20T08:21:34;12.63;;;8.77;;
4704;SDS011;2366;51.332;6.610;2023-08-20T08:24:00;10.03;;;7.43;;
4704;SDS011;2366;51.332;6.610;2023-08-20T08:26:25;10.80;;;8.17;;
4704;SDS011;2366;51.332;6.610;2023-08-20T08:28:50;10.57;;;8.17;;
4704;SDS011;2366;51.332;6.610;2023-08-20T08:31:16;11.13;;;7.83;;
4704;SDS011;2366;51.332;6.610;2023-08-20T08:33:41;12.13;;;8.20;;
4704;SDS011;2366;51.332;6.610;2023-08-20T08:36:06;13.47;;;8.60;;
4704;SDS011;2366;51.332;6.610;2023-08-20T08:38:32;13.63;;;9.17;;
4704;SDS011;2366;51.332;6.610;2023-08-20T08:40:57;12.93;;;8.30;;
4704;SDS011;2366;51.332;6.610;2023-08-20T08:43:25;9.33;;;7.90;;
4704;SDS011;2366;51.332;6.610;2023-08-20T08:45:53;10.00;;;7.63;;
4704;SDS011;2366;51.332;6.610;2023-08-20T08:48:21;9.43;;;7.30;;
4704;SDS011;2366;51.332;6.610;2023-08-20T08:50:46;13.53;;;7.93;;
4704;SDS011;2366;51.332;6.610;2023-08-20T08:53:12;16.70;;;7.87;;
4704;SDS011;2366;51.332;6.610;2023-08-20T08:55:38;10.93;;;7.63;;
4704;SDS011;2366;51.332;6.610;2023-08-20T08:58:04;11.70;;;8.33;;
4704;SDS011;2366;51.332;6.610;2023-08-20T09:00:29;9.80;;;7.00;;
4704;SDS011;2366;51.332;6.610;2023-08-20T09:02:57;17.80;;;8.30;;
4704;SDS011;2366;51.332;6.610;2023-08-20T09:05:22;12.00;;;7.37;;
4704;SDS011;2366;51.332;6.610;2023-08-20T09:07:48;7.17;;;6.40;;
4704;SDS011;2366;51.332;6.610;2023-08-20T09:10:20;8.40;;;6.33;;
4704;SDS011;2366;51.332;6.610;2023-08-20T09:12:47;11.73;;;8.93;;
4704;SDS011;2366;51.332;6.610;2023-08-20T09:15:12;9.70;;;7.43;;
4704;SDS011;2366;51.332;6.610;2023-08-20T09:17:40;11.27;;;7.33;;
4704;SDS011;2366;51.332;6.610;2023-08-20T09:20:06;15.10;;;8.80;;
4704;SDS011;2366;51.332;6.610;2023-08-20T09:22:32;13.00;;;8.30;;
4704;SDS011;2366;51.332;6.610;2023-08-20T09:24:59;9.03;;;7.10;;
4704;SDS011;2366;51.332;6.610;2023-08-20T09:27:25;10.90;;;8.60;;
4704;SDS011;2366;51.332;6.610;2023-08-20T09:29:51;12.77;;;7.83;;
4704;SDS011;2366;51.332;6.610;2023-08-20T09:32:21;11.03;;;8.77;;
4704;SDS011;2366;51.332;6.610;2023-08-20T09:34:49;12.07;;;9.70;;
4704;SDS011;2366;51.332;6.610;2023-08-20T09:37:16;16.87;;;11.60;;
4704;SDS011;2366;51.332;6.610;2023-08-20T09:39:42;9.33;;;8.43;;
4704;SDS011;2366;51.332;6.610;2023-08-20T09:42:08;8.40;;;7.47;;
4704;SDS011;2366;51.332;6.610;2023-08-20T09:44:36;12.23;;;8.47;;
4704;SDS011;2366;51.332;6.610;2023-08-20T09:47:06;14.03;;;8.37;;
4704;SDS011;2366;51.332;6.610;2023-08-20T09:49:36;11.50;;;9.37;;
4704;SDS011;2366;51.332;6.610;2023-08-20T09:52:12;16.60;;;10.47;;
4704;SDS011;2366;51.332;6.610;2023-08-20T09:55:01;14.80;;;11.10;;
4704;SDS011;2366;51.332;6.610;2023-08-20T09:57:39;19.23;;;11.77;;
4704;SDS011;2366;51.332;6.610;2023-08-20T10:00:05;15.60;;;11.50;;
4704;SDS011;2366;51.332;6.610;2023-08-20T10:02:37;13.93;;;11.83;;
4704;SDS011;2366;51.332;6.610;2023-08-20T10:05:06;10.47;;;9.37;;
4704;SDS011;2366;51.332;6.610;2023-08-20T10:07:33;9.57;;;8.13;;
4704;SDS011;2366;51.332;6.610;2023-08-20T10:10:00;9.30;;;8.30;;
4704;SDS011;2366;51.332;6.610;2023-08-20T10:12:28;10.57;;;6.87;;
4704;SDS011;2366;51.332;6.610;2023-08-20T10:14:54;9.20;;;8.30;;
4704;SDS011;2366;51.332;6.610;2023-08-20T10:17:22;8.27;;;7.30;;
4704;SDS011;2366;51.332;6.610;2023-08-20T10:19:47;7.80;;;7.10;;
4704;SDS011;2366;51.332;6.610;2023-08-20T10:22:13;9.07;;;6.50;;
4704;SDS011;2366;51.332;6.610;2023-08-20T10:24:46;8.40;;;5.80;;
4704;SDS011;2366;51.332;6.610;2023-08-20T10:27:23;6.57;;;5.70;;
4704;SDS011;2366;51.332;6.610;2023-08-20T10:29:53;6.03;;;5.23;;
4704;SDS011;2366;51.332;6.610;2023-08-20T10:32:20;5.80;;;5.30;;
4704;SDS011;2366;51.332;6.610;2023-08-20T10:35:05;7.57;;;5.83;;
4704;SDS011;2366;51.332;6.610;2023-08-20T10:37:32;6.30;;;5.00;;
4704;SDS011;2366;51.332;6.610;2023-08-20T10:39:57;7.60;;;6.20;;
4704;SDS011;2366;51.332;6.610;2023-08-20T10:42:26;10.03;;;6.60;;
4704;SDS011;2366;51.332;6.610;2023-08-20T10:44:59;8.70;;;5.23;;
4704;SDS011;2366;51.332;6.610;2023-08-20T10:47:26;8.57;;;6.80;;
4704;SDS011;2366;51.332;6.610;2023-08-20T10:50:10;7.00;;;5.90;;
4704;SDS011;2366;51.332;6.610;2023-08-20T10:52:40;7.53;;;6.60;;
4704;SDS011;2366;51.332;6.610;2023-08-20T10:55:07;6.40;;;5.80;;
4704;SDS011;2366;51.332;6.610;2023-08-20T10:57:36;7.97;;;6.70;;
4704;SDS011;2366;51.332;6.610;2023-08-20T11:00:03;6.57;;;5.13;;
4704;SDS011;2366;51.332;6.610;2023-08-20T11:02:36;5.77;;;4.90;;
4704;SDS011;2366;51.332;6.610;2023-08-20T11:05:03;6.00;;;5.50;;
4704;SDS011;2366;51.332;6.610;2023-08-20T11:07:30;6.10;;;5.43;;
4704;SDS011;2366;51.332;6.610;2023-08-20T11:09:57;5.03;;;4.53;;
4704;SDS011;2366;51.332;6.610;2023-08-20T11:12:23;5.07;;;4.67;;
4704;SDS011;2366;51.332;6.610;2023-08-20T11:14:48;5.67;;;5.10;;
4704;SDS011;2366;51.332;6.610;2023-08-20T11:17:13;6.77;;;5.77;;
4704;SDS011;2366;51.332;6.610;2023-08-20T11:19:39;6.33;;;5.40;;
4704;SDS011;2366;51.332;6.610;2023-08-20T11:22:05;5.77;;;4.93;;
4704;SDS011;2366;51.332;6.610;2023-08-20T11:24:30;5.63;;;4.87;;
4704;SDS011;2366;51.332;6.610;2023-08-20T11:26:55;10.23;;;5.13;;
4704;SDS011;2366;51.332;6.610;2023-08-20T11:29:21;7.27;;;5.87;;
4704;SDS011;2366;51.332;6.610;2023-08-20T11:31:49;5.90;;;4.87;;
4704;SDS011;2366;51.332;6.610;2023-08-20T11:34:15;5.37;;;4.77;;
4704;SDS011;2366;51.332;6.610;2023-08-20T11:36:41;6.43;;;5.60;;
4704;SDS011;2366;51.332;6.610;2023-08-20T11:39:07;7.23;;;5.50;;
4704;SDS011;2366;51.332;6.610;2023-08-20T11:41:35;13.07;;;7.77;;
4704;SDS011;2366;51.332;6.610;2023-08-20T11:44:02;6.33;;;5.60;;
4704;SDS011;2366;51.332;6.610;2023-08-20T11:46:28;5.13;;;4.63;;
4704;SDS011;2366;51.332;6.610;2023-08-20T11:51:29;3.10;;;2.80;;
4704;SDS011;2366;51.332;6.610;2023-08-20T11:54:05;6.50;;;3.87;;
4704;SDS011;2366;51.332;6.610;2023-08-20T11:56:33;6.40;;;3.77;;
4704;SDS011;2366;51.332;6.610;2023-08-20T11:59:03;4.77;;;4.10;;
4704;SDS011;2366;51.332;6.610;2023-08-20T12:01:32;4.03;;;3.63;;
4704;SDS011;2366;51.332;6.610;2023-08-20T12:04:04;4.20;;;3.80;;
4704;SDS011;2366;51.332;6.610;2023-08-20T12:06:31;3.43;;;3.13;;
4704;SDS011;2366;51.332;6.610;2023-08-20T12:08:57;3.70;;;3.40;;
4704;SDS011;2366;51.332;6.610;2023-08-20T12:11:24;4.67;;;4.03;;
4704;SDS011;2366;51.332;6.610;2023-08-20T12:13:53;3.20;;;2.90;;
4704;SDS011;2366;51.332;6.610;2023-08-20T12:16:21;5.63;;;4.00;;
4704;SDS011;2366;51.332;6.610;2023-08-20T12:18:47;5.00;;;4.20;;
4704;SDS011;2366;51.332;6.610;2023-08-20T12:21:12;5.60;;;3.33;;
4704;SDS011;2366;51.332;6.610;2023-08-20T12:23:38;6.67;;;4.63;;
4704;SDS011;2366;51.332;6.610;2023-08-20T12:26:04;5.10;;;3.83;;
4704;SDS011;2366;51.332;6.610;2023-08-20T12:28:29;9.87;;;2.60;;
4704;SDS011;2366;51.332;6.610;2023-08-20T12:30:54;5.77;;;3.40;;
4704;SDS011;2366;51.332;6.610;2023-08-20T12:33:20;6.43;;;3.20;;
4704;SDS011;2366;51.332;6.610;2023-08-20T12:35:46;8.50;;;3.40;;
4704;SDS011;2366;51.332;6.610;2023-08-20T12:38:12;4.60;;;3.17;;
4704;SDS011;2366;51.332;6.610;2023-08-20T12:40:38;3.97;;;2.90;;
4704;SDS011;2366;51.332;6.610;2023-08-20T12:43:03;11.43;;;3.40;;
4704;SDS011;2366;51.332;6.610;2023-08-20T12:45:29;2.60;;;2.33;;
4704;SDS011;2366;51.332;6.610;2023-08-20T12:47:55;5.53;;;3.43;;
4704;SDS011;2366;51.332;6.610;2023-08-20T12:50:20;5.47;;;2.60;;
4704;SDS011;2366;51.332;6.610;2023-08-20T12:52:46;7.53;;;3.50;;
4704;SDS011;2366;51.332;6.610;2023-08-20T12:55:12;4.83;;;2.57;;
4704;SDS011;2366;51.332;6.610;2023-08-20T12:57:51;4.70;;;2.30;;
4704;SDS011;2366;51.332;6.610;2023-08-20T13:00:24;3.47;;;1.97;;
4704;SDS011;2366;51.332;6.610;2023-08-20T13:02:50;5.37;;;2.43;;
4704;SDS011;2366;51.332;6.610;2023-08-20T13:05:16;5.00;;;2.90;;
4704;SDS011;2366;51.332;6.610;2023-08-20T13:07:42;2.30;;;2.10;;
4704;SDS011;2366;51.332;6.610;2023-08-20T13:10:08;2.87;;;2.60;;
4704;SDS011;2366;51.332;6.610;2023-08-20T13:12:34;4.83;;;2.30;;
4704;SDS011;2366;51.332;6.610;2023-08-20T13:15:00;3.53;;;1.53;;
4704;SDS011;2366;51.332;6.610;2023-08-20T13:17:27;4.53;;;2.50;;
4704;SDS011;2366;51.332;6.610;2023-08-20T13:19:52;6.10;;;1.80;;
4704;SDS011;2366;51.332;6.610;2023-08-20T13:22:17;8.80;;;2.40;;
4704;SDS011;2366;51.332;6.610;2023-08-20T13:24:43;2.77;;;2.20;;
4704;SDS011;2366;51.332;6.610;2023-08-20T13:27:08;4.17;;;1.93;;
4704;SDS011;2366;51.332;6.610;2023-08-20T13:29:34;3.47;;;1.87;;
4704;SDS011;2366;51.332;6.610;2023-08-20T13:31:59;8.30;;;2.40;;
4704;SDS011;2366;51.332;6.610;2023-08-20T13:34:26;3.93;;;2.37;;
4704;SDS011;2366;51.332;6.610;2023-08-20T13:36:51;6.00;;;2.40;;
4704;SDS011;2366;51.332;6.610;2023-08-20T13:39:16;7.53;;;2.40;;
4704;SDS011;2366;51.332;6.610;2023-08-20T13:41:43;7.13;;;2.20;;
4704;SDS011;2366;51.332;6.610;2023-08-20T13:44:08;4.13;;;1.93;;
4704;SDS011;2366;51.332;6.610;2023-08-20T13:46:34;4.30;;;2.20;;
4704;SDS011;2366;51.332;6.610;2023-08-20T13:48:59;4.80;;;2.03;;
4704;SDS011;2366;51.332;6.610;2023-08-20T13:51:25;3.33;;;1.77;;
4704;SDS011;2366;51.332;6.610;2023-08-20T13:53:50;1.80;;;1.70;;
4704;SDS011;2366;51.332;6.610;2023-08-20T13:56:16;4.43;;;2.03;;
4704;SDS011;2366;51.332;6.610;2023-08-20T13:58:43;6.63;;;2.10;;
4704;SDS011;2366;51.332;6.610;2023-08-20T14:01:08;7.47;;;2.30;;
4704;SDS011;2366;51.332;6.610;2023-08-20T14:03:34;2.20;;;1.43;;
4704;SDS011;2366;51.332;6.610;2023-08-20T14:06:00;4.17;;;2.37;;
4704;SDS011;2366;51.332;6.610;2023-08-20T14:08:25;2.63;;;1.70;;
4704;SDS011;2366;51.332;6.610;2023-08-20T14:10:51;3.50;;;1.80;;
4704;SDS011;2366;51.332;6.610;2023-08-20T14:13:16;3.63;;;1.67;;
4704;SDS011;2366;51.332;6.610;2023-08-20T14:15:42;2.50;;;1.87;;
4704;SDS011;2366;51.332;6.610;2023-08-20T14:18:07;3.30;;;1.97;;
4704;SDS011;2366;51.332;6.610;2023-08-20T14:20:33;3.17;;;1.57;;
4704;SDS011;2366;51.332;6.610;2023-08-20T14:22:58;5.57;;;1.90;;
4704;SDS011;2366;51.332;6.610;2023-08-20T14:25:23;4.50;;;1.67;;
4704;SDS011;2366;51.332;6.610;2023-08-20T14:27:49;2.30;;;1.47;;
4704;SDS011;2366;51.332;6.610;2023-08-20T14:30:14;2.27;;;1.43;;
4704;SDS011;2366;51.332;6.610;2023-08-20T14:32:43;2.33;;;1.53;;
4704;SDS011;2366;51.332;6.610;2023-08-20T14:35:09;3.20;;;1.47;;
4704;SDS011;2366;51.332;6.610;2023-08-20T14:37:35;5.83;;;1.90;;
4704;SDS011;2366;51.332;6.610;2023-08-20T14:40:00;9.20;;;2.50;;
4704;SDS011;2366;51.332;6.610;2023-08-20T14:42:25;2.23;;;2.03;;
4704;SDS011;2366;51.332;6.610;2023-08-20T14:44:51;2.37;;;1.67;;
4704;SDS011;2366;51.332;6.610;2023-08-20T14:47:18;4.53;;;1.70;;
4704;SDS011;2366;51.332;6.610;2023-08-20T14:49:44;1.90;;;1.47;;
4704;SDS011;2366;51.332;6.610;2023-08-20T14:52:09;6.20;;;1.80;;
4704;SDS011;2366;51.332;6.610;2023-08-20T14:54:35;3.27;;;2.23;;
4704;SDS011;2366;51.332;6.610;2023-08-20T14:57:00;6.60;;;1.60;;
4704;SDS011;2366;51.332;6.610;2023-08-20T14:59:25;1.80;;;1.47;;
4704;SDS011;2366;51.332;6.610;2023-08-20T15:01:51;5.17;;;2.00;;
4704;SDS011;2366;51.332;6.610;2023-08-20T15:04:16;3.60;;;1.70;;
4704;SDS011;2366;51.332;6.610;2023-08-20T15:06:42;3.70;;;1.30;;
4704;SDS011;2366;51.332;6.610;2023-08-20T15:09:07;3.00;;;1.93;;
4704;SDS011;2366;51.332;6.610;2023-08-20T15:11:39;4.70;;;1.80;;
4704;SDS011;2366;51.332;6.610;2023-08-20T15:14:05;2.23;;;1.60;;
4704;SDS011;2366;51.332;6.610;2023-08-20T15:16:30;3.20;;;1.67;;